sensor_id;sensor_type;location;lat;lon;timestamp;temperature;humidity
12520;DHT22;6325;49.540;8.364;2022-07-01T00:00:06;17.40;99.90
12520;DHT22;6325;49.540;8.364;2022-07-01T00:02:34;17.00;99.90
12520;DHT22;6325;49.540;8.364;2022-07-01T00:05:01;17.50;99.90
12520;DHT22;6325;49.540;8.364;2022-07-01T00:07:28;17.50;99.90
12520;DHT22;6325;49.540;8.364;2022-07-01T00:09:55;16.50;99.90
12520;DHT22;6325;49.540;8.364;2022-07-01T00:12:21;16.60;99.90
12520;DHT22;6325;49.540;8.364;2022-07-01T00:14:48;16.70;99.90
12520;DHT22;6325;49.540;8.364;2022-07-01T00:17:15;16.50;99.90
12520;DHT22;6325;49.540;8.364;2022-07-01T00:19:43;17.10;99.90
12520;DHT22;6325;49.540;8.364;2022-07-01T00:22:10;17.20;99.90
12520;DHT22;6325;49.540;8.364;2022-07-01T00:24:37;17.60;99.90
12520;DHT22;6325;49.540;8.364;2022-07-01T00:27:04;17.10;99.90
12520;DHT22;6325;49.540;8.364;2022-07-01T00:29:31;17.30;99.90
12520;DHT22;6325;49.540;8.364;2022-07-01T00:31:58;17.00;99.90
12520;DHT22;6325;49.540;8.364;2022-07-01T00:34:25;16.50;99.90
12520;DHT22;6325;49.540;8.364;2022-07-01T00:36:53;16.80;99.90
12520;DHT22;6325;49.540;8.364;2022-07-01T00:39:20;16.90;99.90
12520;DHT22;6325;49.540;8.364;2022-07-01T00:41:47;16.80;99.90
12520;DHT22;6325;49.540;8.364;2022-07-01T00:44:17;16.40;99.90
12520;DHT22;6325;49.540;8.364;2022-07-01T00:46:44;16.80;99.90
12520;DHT22;6325;49.540;8.364;2022-07-01T00:49:11;16.70;99.90
12520;DHT22;6325;49.540;8.364;2022-07-01T00:51:38;17.00;99.90
12520;DHT22;6325;49.540;8.364;2022-07-01T00:54:06;16.70;99.90
12520;DHT22;6325;49.540;8.364;2022-07-01T00:56:34;17.30;99.90
12520;DHT22;6325;49.540;8.364;2022-07-01T00:59:00;16.90;99.90
12520;DHT22;6325;49.540;8.364;2022-07-01T01:01:27;16.70;99.90
12520;DHT22;6325;49.540;8.364;2022-07-01T01:03:55;17.40;99.90
12520;DHT22;6325;49.540;8.364;2022-07-01T01:06:22;17.00;99.90
12520;DHT22;6325;49.540;8.364;2022-07-01T01:08:49;17.40;99.90
12520;DHT22;6325;49.540;8.364;2022-07-01T01:11:17;17.50;99.90
12520;DHT22;6325;49.540;8.364;2022-07-01T01:13:44;17.20;99.90
12520;DHT22;6325;49.540;8.364;2022-07-01T01:16:16;16.30;99.90
12520;DHT22;6325;49.540;8.364;2022-07-01T01:18:44;16.60;99.90
12520;DHT22;6325;49.540;8.364;2022-07-01T01:21:12;16.60;99.90
12520;DHT22;6325;49.540;8.364;2022-07-01T01:23:39;16.90;99.90
12520;DHT22;6325;49.540;8.364;2022-07-01T01:26:18;16.60;99.90
12520;DHT22;6325;49.540;8.364;2022-07-01T01:28:45;16.60;99.90
12520;DHT22;6325;49.540;8.364;2022-07-01T01:31:12;16.60;99.90
12520;DHT22;6325;49.540;8.364;2022-07-01T01:33:39;17.10;99.90
12520;DHT22;6325;49.540;8.364;2022-07-01T01:36:06;17.10;99.90
12520;DHT22;6325;49.540;8.364;2022-07-01T01:38:36;16.60;99.90
12520;DHT22;6325;49.540;8.364;2022-07-01T01:41:03;16.70;99.90
12520;DHT22;6325;49.540;8.364;2022-07-01T01:43:30;16.60;99.90
12520;DHT22;6325;49.540;8.364;2022-07-01T01:46:00;16.70;99.90
12520;DHT22;6325;49.540;8.364;2022-07-01T01:48:27;16.90;99.90
12520;DHT22;6325;49.540;8.364;2022-07-01T01:50:54;16.80;99.90
12520;DHT22;6325;49.540;8.364;2022-07-01T01:53:21;16.60;99.90
12520;DHT22;6325;49.540;8.364;2022-07-01T01:55:49;16.50;99.90
12520;DHT22;6325;49.540;8.364;2022-07-01T01:58:16;16.50;99.90
12520;DHT22;6325;49.540;8.364;2022-07-01T02:00:43;17.30;99.90
12520;DHT22;6325;49.540;8.364;2022-07-01T02:03:09;16.60;99.90
12520;DHT22;6325;49.540;8.364;2022-07-01T02:05:36;16.50;99.90
12520;DHT22;6325;49.540;8.364;2022-07-01T02:08:04;16.40;99.90
12520;DHT22;6325;49.540;8.364;2022-07-01T02:10:31;16.70;99.90
12520;DHT22;6325;49.540;8.364;2022-07-01T02:12:59;16.40;99.90
12520;DHT22;6325;49.540;8.364;2022-07-01T02:15:26;16.20;99.90
12520;DHT22;6325;49.540;8.364;2022-07-01T02:17:53;16.40;99.90
12520;DHT22;6325;49.540;8.364;2022-07-01T02:20:22;16.40;99.90
12520;DHT22;6325;49.540;8.364;2022-07-01T02:22:49;16.40;99.90
12520;DHT22;6325;49.540;8.364;2022-07-01T02:25:17;16.50;99.90
12520;DHT22;6325;49.540;8.364;2022-07-01T02:27:44;16.40;99.90
12520;DHT22;6325;49.540;8.364;2022-07-01T02:30:12;16.40;99.90
12520;DHT22;6325;49.540;8.364;2022-07-01T02:32:39;15.90;99.90
12520;DHT22;6325;49.540;8.364;2022-07-01T02:35:07;16.40;99.90
12520;DHT22;6325;49.540;8.364;2022-07-01T02:37:33;16.30;99.90
12520;DHT22;6325;49.540;8.364;2022-07-01T02:40:01;16.40;99.90
12520;DHT22;6325;49.540;8.364;2022-07-01T02:42:28;16.80;99.90
12520;DHT22;6325;49.540;8.364;2022-07-01T02:45:00;16.30;99.90
12520;DHT22;6325;49.540;8.364;2022-07-01T02:47:32;16.50;99.90
12520;DHT22;6325;49.540;8.364;2022-07-01T02:49:59;16.40;99.90
12520;DHT22;6325;49.540;8.364;2022-07-01T02:52:26;16.70;99.90
12520;DHT22;6325;49.540;8.364;2022-07-01T02:54:54;16.40;99.90
12520;DHT22;6325;49.540;8.364;2022-07-01T02:57:21;16.40;99.90
12520;DHT22;6325;49.540;8.364;2022-07-01T02:59:48;16.30;99.90
12520;DHT22;6325;49.540;8.364;2022-07-01T03:02:17;16.20;99.90
12520;DHT22;6325;49.540;8.364;2022-07-01T03:04:46;16.20;99.90
12520;DHT22;6325;49.540;8.364;2022-07-01T03:07:13;16.20;99.90
12520;DHT22;6325;49.540;8.364;2022-07-01T03:09:40;16.20;99.90
12520;DHT22;6325;49.540;8.364;2022-07-01T03:12:08;16.20;99.90
12520;DHT22;6325;49.540;8.364;2022-07-01T03:14:49;16.20;99.90
12520;DHT22;6325;49.540;8.364;2022-07-01T03:17:16;16.30;99.90
12520;DHT22;6325;49.540;8.364;2022-07-01T03:19:43;15.90;99.90
12520;DHT22;6325;49.540;8.364;2022-07-01T03:22:12;16.10;99.90
12520;DHT22;6325;49.540;8.364;2022-07-01T03:24:38;16.20;99.90
12520;DHT22;6325;49.540;8.364;2022-07-01T03:27:05;16.20;99.90
12520;DHT22;6325;49.540;8.364;2022-07-01T03:29:33;16.30;99.90
12520;DHT22;6325;49.540;8.364;2022-07-01T03:32:00;16.30;99.90
12520;DHT22;6325;49.540;8.364;2022-07-01T03:34:26;16.20;99.90
12520;DHT22;6325;49.540;8.364;2022-07-01T03:36:53;15.90;99.90
12520;DHT22;6325;49.540;8.364;2022-07-01T03:39:22;16.20;99.90
12520;DHT22;6325;49.540;8.364;2022-07-01T03:41:49;16.20;99.90
12520;DHT22;6325;49.540;8.364;2022-07-01T03:44:16;16.40;99.90
12520;DHT22;6325;49.540;8.364;2022-07-01T03:46:42;16.10;99.90
12520;DHT22;6325;49.540;8.364;2022-07-01T03:49:09;15.70;99.90
12520;DHT22;6325;49.540;8.364;2022-07-01T03:51:36;16.00;99.90
12520;DHT22;6325;49.540;8.364;2022-07-01T03:54:03;16.10;99.90
12520;DHT22;6325;49.540;8.364;2022-07-01T03:56:49;15.80;99.90
12520;DHT22;6325;49.540;8.364;2022-07-01T03:59:16;16.50;99.90
12520;DHT22;6325;49.540;8.364;2022-07-01T04:01:43;16.60;99.90
12520;DHT22;6325;49.540;8.364;2022-07-01T04:04:09;15.80;99.90
12520;DHT22;6325;49.540;8.364;2022-07-01T04:06:37;16.10;99.90
12520;DHT22;6325;49.540;8.364;2022-07-01T04:09:04;16.10;99.90
12520;DHT22;6325;49.540;8.364;2022-07-01T04:11:31;16.30;99.90
12520;DHT22;6325;49.540;8.364;2022-07-01T04:14:00;16.10;99.90
12520;DHT22;6325;49.540;8.364;2022-07-01T04:16:27;16.10;99.90
12520;DHT22;6325;49.540;8.364;2022-07-01T04:18:54;15.80;99.90
12520;DHT22;6325;49.540;8.364;2022-07-01T04:21:21;16.20;99.90
12520;DHT22;6325;49.540;8.364;2022-07-01T04:24:06;15.80;99.90
12520;DHT22;6325;49.540;8.364;2022-07-01T04:26:33;16.10;99.90
12520;DHT22;6325;49.540;8.364;2022-07-01T04:29:01;16.30;99.90
12520;DHT22;6325;49.540;8.364;2022-07-01T04:31:28;16.10;99.90
12520;DHT22;6325;49.540;8.364;2022-07-01T04:33:55;16.00;99.90
12520;DHT22;6325;49.540;8.364;2022-07-01T04:36:22;16.20;99.90
12520;DHT22;6325;49.540;8.364;2022-07-01T04:38:49;16.10;99.90
12520;DHT22;6325;49.540;8.364;2022-07-01T04:41:16;16.20;99.90
12520;DHT22;6325;49.540;8.364;2022-07-01T04:44:02;16.10;99.90
12520;DHT22;6325;49.540;8.364;2022-07-01T04:46:29;16.20;99.90
12520;DHT22;6325;49.540;8.364;2022-07-01T04:48:55;15.70;99.90
12520;DHT22;6325;49.540;8.364;2022-07-01T04:51:23;16.40;99.90
12520;DHT22;6325;49.540;8.364;2022-07-01T04:53:50;16.30;99.90
12520;DHT22;6325;49.540;8.364;2022-07-01T04:56:17;16.40;99.90
12520;DHT22;6325;49.540;8.364;2022-07-01T04:58:44;16.30;99.90
12520;DHT22;6325;49.540;8.364;2022-07-01T05:01:12;16.30;99.90
12520;DHT22;6325;49.540;8.364;2022-07-01T05:03:42;16.90;99.90
12520;DHT22;6325;49.540;8.364;2022-07-01T05:06:09;16.80;99.90
12520;DHT22;6325;49.540;8.364;2022-07-01T05:08:35;15.90;99.90
12520;DHT22;6325;49.540;8.364;2022-07-01T05:11:03;16.40;99.90
12520;DHT22;6325;49.540;8.364;2022-07-01T05:13:30;16.90;99.90
12520;DHT22;6325;49.540;8.364;2022-07-01T05:15:58;16.50;99.90
12520;DHT22;6325;49.540;8.364;2022-07-01T05:18:27;16.80;99.90
12520;DHT22;6325;49.540;8.364;2022-07-01T05:21:16;16.60;99.90
12520;DHT22;6325;49.540;8.364;2022-07-01T05:24:03;16.60;99.90
12520;DHT22;6325;49.540;8.364;2022-07-01T05:26:30;16.40;99.90
12520;DHT22;6325;49.540;8.364;2022-07-01T05:28:56;17.00;99.90
12520;DHT22;6325;49.540;8.364;2022-07-01T05:31:23;16.90;99.90
12520;DHT22;6325;49.540;8.364;2022-07-01T05:33:51;17.10;99.90
12520;DHT22;6325;49.540;8.364;2022-07-01T05:36:18;16.60;99.90
12520;DHT22;6325;49.540;8.364;2022-07-01T05:38:45;17.40;99.90
12520;DHT22;6325;49.540;8.364;2022-07-01T05:41:12;16.70;99.90
12520;DHT22;6325;49.540;8.364;2022-07-01T05:43:39;16.90;99.90
12520;DHT22;6325;49.540;8.364;2022-07-01T05:46:06;17.10;99.90
12520;DHT22;6325;49.540;8.364;2022-07-01T05:48:33;16.90;99.90
12520;DHT22;6325;49.540;8.364;2022-07-01T05:51:01;17.10;99.90
12520;DHT22;6325;49.540;8.364;2022-07-01T05:53:28;16.70;99.90
12520;DHT22;6325;49.540;8.364;2022-07-01T05:55:55;17.00;99.90
12520;DHT22;6325;49.540;8.364;2022-07-01T05:58:22;17.50;99.90
12520;DHT22;6325;49.540;8.364;2022-07-01T06:00:48;17.00;99.90
12520;DHT22;6325;49.540;8.364;2022-07-01T06:03:15;17.00;99.90
12520;DHT22;6325;49.540;8.364;2022-07-01T06:05:43;16.90;99.90
12520;DHT22;6325;49.540;8.364;2022-07-01T06:08:11;16.90;99.90
12520;DHT22;6325;49.540;8.364;2022-07-01T06:10:38;17.10;99.90
12520;DHT22;6325;49.540;8.364;2022-07-01T06:13:05;17.10;99.90
12520;DHT22;6325;49.540;8.364;2022-07-01T06:15:33;17.20;99.90
12520;DHT22;6325;49.540;8.364;2022-07-01T06:18:00;17.40;99.90
12520;DHT22;6325;49.540;8.364;2022-07-01T06:20:27;17.20;99.90
12520;DHT22;6325;49.540;8.364;2022-07-01T06:22:54;17.80;99.90
12520;DHT22;6325;49.540;8.364;2022-07-01T06:25:24;17.30;99.90
12520;DHT22;6325;49.540;8.364;2022-07-01T06:27:51;17.30;99.90
12520;DHT22;6325;49.540;8.364;2022-07-01T06:30:17;17.20;99.90
12520;DHT22;6325;49.540;8.364;2022-07-01T06:32:44;17.50;99.90
12520;DHT22;6325;49.540;8.364;2022-07-01T06:35:11;17.10;99.90
12520;DHT22;6325;49.540;8.364;2022-07-01T06:37:38;17.10;99.90
12520;DHT22;6325;49.540;8.364;2022-07-01T06:40:06;17.60;99.90
12520;DHT22;6325;49.540;8.364;2022-07-01T06:42:35;17.40;99.90
12520;DHT22;6325;49.540;8.364;2022-07-01T06:45:02;16.80;99.90
12520;DHT22;6325;49.540;8.364;2022-07-01T06:47:29;17.30;99.90
12520;DHT22;6325;49.540;8.364;2022-07-01T06:49:55;16.50;99.90
12520;DHT22;6325;49.540;8.364;2022-07-01T06:52:22;16.90;99.90
12520;DHT22;6325;49.540;8.364;2022-07-01T06:54:49;17.00;99.90
12520;DHT22;6325;49.540;8.364;2022-07-01T06:57:16;17.00;99.90
12520;DHT22;6325;49.540;8.364;2022-07-01T06:59:48;17.20;99.90
12520;DHT22;6325;49.540;8.364;2022-07-01T07:02:15;17.60;99.90
12520;DHT22;6325;49.540;8.364;2022-07-01T07:04:42;17.40;99.90
12520;DHT22;6325;49.540;8.364;2022-07-01T07:07:09;17.20;99.90
12520;DHT22;6325;49.540;8.364;2022-07-01T07:09:36;17.50;99.90
12520;DHT22;6325;49.540;8.364;2022-07-01T07:12:03;17.60;99.90
12520;DHT22;6325;49.540;8.364;2022-07-01T07:14:30;17.80;99.90
12520;DHT22;6325;49.540;8.364;2022-07-01T07:17:00;17.90;99.90
12520;DHT22;6325;49.540;8.364;2022-07-01T07:19:27;17.50;99.90
12520;DHT22;6325;49.540;8.364;2022-07-01T07:21:54;18.20;99.90
12520;DHT22;6325;49.540;8.364;2022-07-01T07:24:22;17.50;99.90
12520;DHT22;6325;49.540;8.364;2022-07-01T07:26:49;16.90;99.90
12520;DHT22;6325;49.540;8.364;2022-07-01T07:29:15;18.00;99.90
12520;DHT22;6325;49.540;8.364;2022-07-01T07:31:42;17.30;99.90
12520;DHT22;6325;49.540;8.364;2022-07-01T07:34:10;16.70;99.90
12520;DHT22;6325;49.540;8.364;2022-07-01T07:36:37;17.30;99.90
12520;DHT22;6325;49.540;8.364;2022-07-01T07:39:04;16.90;99.90
12520;DHT22;6325;49.540;8.364;2022-07-01T07:41:31;17.20;99.90
12520;DHT22;6325;49.540;8.364;2022-07-01T07:43:58;17.10;99.90
12520;DHT22;6325;49.540;8.364;2022-07-01T07:46:25;17.80;99.90
12520;DHT22;6325;49.540;8.364;2022-07-01T07:48:52;18.00;99.90
12520;DHT22;6325;49.540;8.364;2022-07-01T07:51:20;16.90;99.90
12520;DHT22;6325;49.540;8.364;2022-07-01T07:53:48;18.00;99.90
12520;DHT22;6325;49.540;8.364;2022-07-01T07:56:15;17.40;99.90
12520;DHT22;6325;49.540;8.364;2022-07-01T07:58:42;17.60;99.90
12520;DHT22;6325;49.540;8.364;2022-07-01T08:01:10;17.60;99.90
12520;DHT22;6325;49.540;8.364;2022-07-01T08:03:36;17.90;99.90
12520;DHT22;6325;49.540;8.364;2022-07-01T08:06:04;17.40;99.90
12520;DHT22;6325;49.540;8.364;2022-07-01T08:08:32;17.50;99.90
12520;DHT22;6325;49.540;8.364;2022-07-01T08:11:00;17.20;99.90
12520;DHT22;6325;49.540;8.364;2022-07-01T08:13:27;17.60;99.90
12520;DHT22;6325;49.540;8.364;2022-07-01T08:15:54;17.80;99.90
12520;DHT22;6325;49.540;8.364;2022-07-01T08:18:21;17.40;99.90
12520;DHT22;6325;49.540;8.364;2022-07-01T08:20:49;16.90;99.90
12520;DHT22;6325;49.540;8.364;2022-07-01T08:23:18;17.60;99.90
12520;DHT22;6325;49.540;8.364;2022-07-01T08:25:48;17.10;99.90
12520;DHT22;6325;49.540;8.364;2022-07-01T08:28:15;17.70;99.90
12520;DHT22;6325;49.540;8.364;2022-07-01T08:30:42;17.40;99.90
12520;DHT22;6325;49.540;8.364;2022-07-01T08:33:10;17.00;99.90
12520;DHT22;6325;49.540;8.364;2022-07-01T08:35:37;17.50;99.90
12520;DHT22;6325;49.540;8.364;2022-07-01T08:38:04;17.60;99.90
12520;DHT22;6325;49.540;8.364;2022-07-01T08:40:32;17.80;99.90
12520;DHT22;6325;49.540;8.364;2022-07-01T08:43:01;17.20;99.90
12520;DHT22;6325;49.540;8.364;2022-07-01T08:45:30;17.40;99.90
12520;DHT22;6325;49.540;8.364;2022-07-01T08:47:58;17.70;99.90
12520;DHT22;6325;49.540;8.364;2022-07-01T08:50:27;17.50;99.90
12520;DHT22;6325;49.540;8.364;2022-07-01T08:52:54;17.20;99.90
12520;DHT22;6325;49.540;8.364;2022-07-01T08:55:21;17.10;99.90
12520;DHT22;6325;49.540;8.364;2022-07-01T08:57:49;17.50;99.90
12520;DHT22;6325;49.540;8.364;2022-07-01T09:00:17;18.00;99.90
12520;DHT22;6325;49.540;8.364;2022-07-01T09:02:54;17.50;99.90
12520;DHT22;6325;49.540;8.364;2022-07-01T09:05:22;17.70;99.90
12520;DHT22;6325;49.540;8.364;2022-07-01T09:07:55;17.70;99.90
12520;DHT22;6325;49.540;8.364;2022-07-01T09:10:23;17.30;99.90
12520;DHT22;6325;49.540;8.364;2022-07-01T09:12:49;17.70;99.90
12520;DHT22;6325;49.540;8.364;2022-07-01T09:15:25;18.20;99.90
12520;DHT22;6325;49.540;8.364;2022-07-01T09:17:54;18.00;99.90
12520;DHT22;6325;49.540;8.364;2022-07-01T09:20:26;18.00;99.90
12520;DHT22;6325;49.540;8.364;2022-07-01T09:22:57;18.60;99.90
12520;DHT22;6325;49.540;8.364;2022-07-01T09:25:27;18.30;99.90
12520;DHT22;6325;49.540;8.364;2022-07-01T09:28:03;18.30;99.90
12520;DHT22;6325;49.540;8.364;2022-07-01T09:30:31;18.70;99.90
12520;DHT22;6325;49.540;8.364;2022-07-01T09:33:13;18.40;99.90
12520;DHT22;6325;49.540;8.364;2022-07-01T09:35:42;18.50;99.90
12520;DHT22;6325;49.540;8.364;2022-07-01T09:38:11;18.70;99.90
12520;DHT22;6325;49.540;8.364;2022-07-01T09:40:49;19.50;99.90
12520;DHT22;6325;49.540;8.364;2022-07-01T09:43:17;18.70;99.90
12520;DHT22;6325;49.540;8.364;2022-07-01T09:45:57;19.50;99.90
12520;DHT22;6325;49.540;8.364;2022-07-01T09:48:26;19.00;99.90
12520;DHT22;6325;49.540;8.364;2022-07-01T09:50:53;19.30;99.90
12520;DHT22;6325;49.540;8.364;2022-07-01T09:53:20;19.30;99.90
12520;DHT22;6325;49.540;8.364;2022-07-01T09:55:48;19.50;99.90
12520;DHT22;6325;49.540;8.364;2022-07-01T09:58:15;19.40;99.90
12520;DHT22;6325;49.540;8.364;2022-07-01T10:00:42;19.10;99.90
12520;DHT22;6325;49.540;8.364;2022-07-01T10:03:11;19.50;99.90
12520;DHT22;6325;49.540;8.364;2022-07-01T10:05:42;18.90;99.90
12520;DHT22;6325;49.540;8.364;2022-07-01T10:11:14;19.80;99.90
12520;DHT22;6325;49.540;8.364;2022-07-01T10:13:47;19.30;99.90
12520;DHT22;6325;49.540;8.364;2022-07-01T10:16:16;18.80;99.90
12520;DHT22;6325;49.540;8.364;2022-07-01T10:18:44;19.50;99.90
12520;DHT22;6325;49.540;8.364;2022-07-01T10:21:25;19.30;99.90
12520;DHT22;6325;49.540;8.364;2022-07-01T10:23:52;19.40;99.90
12520;DHT22;6325;49.540;8.364;2022-07-01T10:26:19;19.70;99.90
12520;DHT22;6325;49.540;8.364;2022-07-01T10:28:46;19.80;99.90
12520;DHT22;6325;49.540;8.364;2022-07-01T10:31:14;20.00;99.90
12520;DHT22;6325;49.540;8.364;2022-07-01T10:33:45;20.10;99.90
12520;DHT22;6325;49.540;8.364;2022-07-01T10:36:15;20.80;99.90
12520;DHT22;6325;49.540;8.364;2022-07-01T10:39:15;20.90;99.90
12520;DHT22;6325;49.540;8.364;2022-07-01T10:41:59;20.70;99.90
12520;DHT22;6325;49.540;8.364;2022-07-01T10:44:27;21.10;99.90
12520;DHT22;6325;49.540;8.364;2022-07-01T10:46:56;20.90;99.90
12520;DHT22;6325;49.540;8.364;2022-07-01T10:49:55;20.30;99.90
12520;DHT22;6325;49.540;8.364;2022-07-01T10:52:22;20.00;99.90
12520;DHT22;6325;49.540;8.364;2022-07-01T10:54:51;19.70;99.90
12520;DHT22;6325;49.540;8.364;2022-07-01T10:57:33;19.90;99.90
12520;DHT22;6325;49.540;8.364;2022-07-01T11:00:26;19.60;99.90
12520;DHT22;6325;49.540;8.364;2022-07-01T11:03:17;20.10;99.90
12520;DHT22;6325;49.540;8.364;2022-07-01T11:05:47;20.40;99.90
12520;DHT22;6325;49.540;8.364;2022-07-01T11:08:14;21.20;99.90
12520;DHT22;6325;49.540;8.364;2022-07-01T11:10:42;20.70;99.90
12520;DHT22;6325;49.540;8.364;2022-07-01T11:13:13;21.00;99.90
12520;DHT22;6325;49.540;8.364;2022-07-01T11:15:40;20.80;99.90
12520;DHT22;6325;49.540;8.364;2022-07-01T11:18:07;20.80;99.90
12520;DHT22;6325;49.540;8.364;2022-07-01T11:20:35;21.30;99.90
12520;DHT22;6325;49.540;8.364;2022-07-01T11:23:03;20.90;99.90
12520;DHT22;6325;49.540;8.364;2022-07-01T11:25:30;21.70;99.90
12520;DHT22;6325;49.540;8.364;2022-07-01T11:27:57;21.20;99.90
12520;DHT22;6325;49.540;8.364;2022-07-01T11:30:24;22.00;99.90
12520;DHT22;6325;49.540;8.364;2022-07-01T11:32:54;22.10;99.90
12520;DHT22;6325;49.540;8.364;2022-07-01T11:35:24;22.50;99.90
12520;DHT22;6325;49.540;8.364;2022-07-01T11:38:12;22.50;99.90
12520;DHT22;6325;49.540;8.364;2022-07-01T11:40:58;21.90;99.90
12520;DHT22;6325;49.540;8.364;2022-07-01T11:43:26;21.90;99.90
12520;DHT22;6325;49.540;8.364;2022-07-01T11:45:54;21.60;99.90
12520;DHT22;6325;49.540;8.364;2022-07-01T11:48:35;21.40;99.90
12520;DHT22;6325;49.540;8.364;2022-07-01T11:51:08;21.50;99.90
12520;DHT22;6325;49.540;8.364;2022-07-01T11:53:39;21.80;99.90
12520;DHT22;6325;49.540;8.364;2022-07-01T11:56:06;21.30;99.90
12520;DHT22;6325;49.540;8.364;2022-07-01T11:58:44;21.60;99.90
12520;DHT22;6325;49.540;8.364;2022-07-01T12:01:19;21.80;99.90
12520;DHT22;6325;49.540;8.364;2022-07-01T12:03:46;22.40;99.90
12520;DHT22;6325;49.540;8.364;2022-07-01T12:06:14;22.80;99.90
12520;DHT22;6325;49.540;8.364;2022-07-01T12:08:44;23.50;99.90
12520;DHT22;6325;49.540;8.364;2022-07-01T12:11:11;23.10;99.90
12520;DHT22;6325;49.540;8.364;2022-07-01T12:13:38;22.90;99.90
12520;DHT22;6325;49.540;8.364;2022-07-01T12:16:06;22.40;99.90
12520;DHT22;6325;49.540;8.364;2022-07-01T12:18:34;22.70;99.90
12520;DHT22;6325;49.540;8.364;2022-07-01T12:21:01;22.40;99.90
12520;DHT22;6325;49.540;8.364;2022-07-01T12:23:28;22.10;99.90
12520;DHT22;6325;49.540;8.364;2022-07-01T12:25:57;22.20;99.90
12520;DHT22;6325;49.540;8.364;2022-07-01T12:28:28;22.50;99.90
12520;DHT22;6325;49.540;8.364;2022-07-01T12:31:05;22.90;99.90
12520;DHT22;6325;49.540;8.364;2022-07-01T12:33:36;23.10;99.90
12520;DHT22;6325;49.540;8.364;2022-07-01T12:36:05;23.20;99.90
12520;DHT22;6325;49.540;8.364;2022-07-01T12:38:32;24.50;99.90
12520;DHT22;6325;49.540;8.364;2022-07-01T12:41:01;24.20;99.90
12520;DHT22;6325;49.540;8.364;2022-07-01T12:43:30;23.80;99.90
12520;DHT22;6325;49.540;8.364;2022-07-01T12:45:59;23.90;99.90
12520;DHT22;6325;49.540;8.364;2022-07-01T12:48:26;23.50;99.90
12520;DHT22;6325;49.540;8.364;2022-07-01T12:50:54;23.30;99.90
12520;DHT22;6325;49.540;8.364;2022-07-01T12:53:22;23.40;99.90
12520;DHT22;6325;49.540;8.364;2022-07-01T12:55:50;23.70;99.90
12520;DHT22;6325;49.540;8.364;2022-07-01T12:58:20;23.40;99.90
12520;DHT22;6325;49.540;8.364;2022-07-01T13:00:49;23.20;99.90
12520;DHT22;6325;49.540;8.364;2022-07-01T13:03:19;23.00;99.90
12520;DHT22;6325;49.540;8.364;2022-07-01T13:05:46;22.90;99.90
12520;DHT22;6325;49.540;8.364;2022-07-01T13:08:13;22.20;99.90
12520;DHT22;6325;49.540;8.364;2022-07-01T13:10:40;22.80;99.90
12520;DHT22;6325;49.540;8.364;2022-07-01T13:13:07;22.80;99.90
12520;DHT22;6325;49.540;8.364;2022-07-01T13:15:36;22.80;99.90
12520;DHT22;6325;49.540;8.364;2022-07-01T13:18:03;22.90;99.90
12520;DHT22;6325;49.540;8.364;2022-07-01T13:20:30;23.10;99.90
12520;DHT22;6325;49.540;8.364;2022-07-01T13:22:57;23.00;99.90
12520;DHT22;6325;49.540;8.364;2022-07-01T13:25:24;23.20;99.90
12520;DHT22;6325;49.540;8.364;2022-07-01T13:27:50;23.80;99.90
12520;DHT22;6325;49.540;8.364;2022-07-01T13:30:18;23.50;99.90
12520;DHT22;6325;49.540;8.364;2022-07-01T13:32:47;23.70;99.90
12520;DHT22;6325;49.540;8.364;2022-07-01T13:35:17;24.20;99.90
12520;DHT22;6325;49.540;8.364;2022-07-01T13:37:45;24.80;99.90
12520;DHT22;6325;49.540;8.364;2022-07-01T13:40:12;25.00;99.90
12520;DHT22;6325;49.540;8.364;2022-07-01T13:42:39;25.20;99.90
12520;DHT22;6325;49.540;8.364;2022-07-01T13:45:07;25.50;99.90
12520;DHT22;6325;49.540;8.364;2022-07-01T13:47:34;25.50;99.90
12520;DHT22;6325;49.540;8.364;2022-07-01T13:50:03;25.50;99.90
12520;DHT22;6325;49.540;8.364;2022-07-01T13:52:30;25.30;99.90
12520;DHT22;6325;49.540;8.364;2022-07-01T13:54:57;25.20;99.90
12520;DHT22;6325;49.540;8.364;2022-07-01T13:57:25;25.30;99.90
12520;DHT22;6325;49.540;8.364;2022-07-01T13:59:52;25.40;99.90
12520;DHT22;6325;49.540;8.364;2022-07-01T14:02:19;25.80;99.90
12520;DHT22;6325;49.540;8.364;2022-07-01T14:04:46;25.80;99.90
12520;DHT22;6325;49.540;8.364;2022-07-01T14:07:15;25.70;99.90
12520;DHT22;6325;49.540;8.364;2022-07-01T14:09:42;25.80;99.90
12520;DHT22;6325;49.540;8.364;2022-07-01T14:12:10;25.30;99.90
12520;DHT22;6325;49.540;8.364;2022-07-01T14:14:37;25.20;99.90
12520;DHT22;6325;49.540;8.364;2022-07-01T14:17:04;25.20;99.90
12520;DHT22;6325;49.540;8.364;2022-07-01T14:19:31;25.40;99.90
12520;DHT22;6325;49.540;8.364;2022-07-01T14:21:59;25.40;99.90
12520;DHT22;6325;49.540;8.364;2022-07-01T14:24:27;25.80;99.90
12520;DHT22;6325;49.540;8.364;2022-07-01T14:26:54;26.30;99.90
12520;DHT22;6325;49.540;8.364;2022-07-01T14:29:21;26.60;99.90
12520;DHT22;6325;49.540;8.364;2022-07-01T14:31:48;26.60;99.90
12520;DHT22;6325;49.540;8.364;2022-07-01T14:34:15;26.50;98.80
12520;DHT22;6325;49.540;8.364;2022-07-01T14:36:41;27.10;96.80
12520;DHT22;6325;49.540;8.364;2022-07-01T14:39:08;26.40;96.80
12520;DHT22;6325;49.540;8.364;2022-07-01T14:41:37;26.90;97.90
12520;DHT22;6325;49.540;8.364;2022-07-01T14:44:04;26.30;95.90
12520;DHT22;6325;49.540;8.364;2022-07-01T14:46:31;26.40;96.40
12520;DHT22;6325;49.540;8.364;2022-07-01T14:48:57;26.10;96.80
12520;DHT22;6325;49.540;8.364;2022-07-01T14:51:24;27.00;97.80
12520;DHT22;6325;49.540;8.364;2022-07-01T14:53:51;26.60;96.10
12520;DHT22;6325;49.540;8.364;2022-07-01T14:56:18;26.50;96.40
12520;DHT22;6325;49.540;8.364;2022-07-01T14:58:46;26.30;97.00
12520;DHT22;6325;49.540;8.364;2022-07-01T15:01:13;25.50;97.80
12520;DHT22;6325;49.540;8.364;2022-07-01T15:03:41;25.50;96.50
12520;DHT22;6325;49.540;8.364;2022-07-01T15:06:07;25.30;96.70
12520;DHT22;6325;49.540;8.364;2022-07-01T15:08:34;25.10;96.60
12520;DHT22;6325;49.540;8.364;2022-07-01T15:11:02;25.00;97.30
12520;DHT22;6325;49.540;8.364;2022-07-01T15:13:29;25.10;98.70
12520;DHT22;6325;49.540;8.364;2022-07-01T15:15:58;25.50;96.80
12520;DHT22;6325;49.540;8.364;2022-07-01T15:18:25;25.60;95.70
12520;DHT22;6325;49.540;8.364;2022-07-01T15:20:52;25.30;96.80
12520;DHT22;6325;49.540;8.364;2022-07-01T15:23:19;25.20;98.10
12520;DHT22;6325;49.540;8.364;2022-07-01T15:25:46;25.40;99.10
12520;DHT22;6325;49.540;8.364;2022-07-01T15:28:13;24.80;99.50
12520;DHT22;6325;49.540;8.364;2022-07-01T15:30:40;25.70;97.70
12520;DHT22;6325;49.540;8.364;2022-07-01T15:33:08;26.10;97.20
12520;DHT22;6325;49.540;8.364;2022-07-01T15:35:35;25.80;96.70
12520;DHT22;6325;49.540;8.364;2022-07-01T15:38:01;26.60;96.00
12520;DHT22;6325;49.540;8.364;2022-07-01T15:40:28;26.20;97.20
12520;DHT22;6325;49.540;8.364;2022-07-01T15:42:56;25.60;97.30
12520;DHT22;6325;49.540;8.364;2022-07-01T15:45:24;25.40;96.50
12520;DHT22;6325;49.540;8.364;2022-07-01T15:47:51;25.90;95.90
12520;DHT22;6325;49.540;8.364;2022-07-01T15:50:36;26.00;95.70
12520;DHT22;6325;49.540;8.364;2022-07-01T15:53:04;25.40;97.10
12520;DHT22;6325;49.540;8.364;2022-07-01T15:55:31;24.80;97.30